Time;durP1;ratioP1;P1;durP2;ratioP2;P2;SDS_P1;SDS_P2;PMS_P1;PMS_P2;Temp;Humidity;BMP_temperature;BMP_pressure;BME280_temperature;BME280_humidity;BME280_pressure;Samples;Min_cycle;Max_cycle;Signal;HPM_P1;HPM_P2
2023/10/23 00:01:17;;;;;;;24.70;9.82;;;;;;;;;;5055303;28;20045;-57
2023/10/23 00:04:05;;;;;;;23.40;10.93;;;;;;;;;;5053111;28;20045;-57
2023/10/23 00:07:00;;;;;;;20.83;10.30;;;;;;;;;;5052361;28;20057;-59
2023/10/23 00:09:47;;;;;;;20.65;9.68;;;;;;;;;;5051334;28;20052;-59
2023/10/23 00:12:54;;;;;;;16.52;9.43;;;;;;;;;;5049761;28;20056;-59
2023/10/23 00:15:48;;;;;;;18.58;9.48;;;;;;;;;;5053877;28;20059;-59
2023/10/23 00:18:42;;;;;;;15.35;8.98;;;;;;;;;;5053295;28;20529;-60
2023/10/23 00:21:29;;;;;;;15.85;8.82;;;;;;;;;;5053392;28;20094;-59
2023/10/23 00:24:23;;;;;;;18.48;8.95;;;;;;;;;;5052615;28;20934;-59
2023/10/23 00:27:10;;;;;;;17.67;8.15;;;;;;;;;;5055470;28;20458;-59
2023/10/23 00:30:04;;;;;;;19.02;8.27;;;;;;;;;;5055030;28;20076;-63
2023/10/23 00:32:52;;;;;;;16.23;8.52;;;;;;;;;;5049159;28;20057;-63
2023/10/23 00:35:46;;;;;;;12.48;7.80;;;;;;;;;;5046471;28;20796;-63
2023/10/23 00:38:33;;;;;;;15.20;8.15;;;;;;;;;;5043293;28;20575;-63
2023/10/23 00:41:27;;;;;;;13.98;7.80;;;;;;;;;;5045404;28;20201;-63
2023/10/23 00:44:14;;;;;;;15.20;7.50;;;;;;;;;;5044794;28;20102;-63
2023/10/23 00:47:09;;;;;;;15.55;7.75;;;;;;;;;;5048345;28;20056;-65
2023/10/23 00:49:57;;;;;;;16.00;7.38;;;;;;;;;;5046281;28;20092;-64
2023/10/23 00:52:51;;;;;;;15.20;7.35;;;;;;;;;;5046214;28;20056;-63
2023/10/23 00:55:38;;;;;;;16.52;8.30;;;;;;;;;;5050972;28;20059;-62
2023/10/23 00:58:33;;;;;;;13.48;6.80;;;;;;;;;;5049828;28;20076;-63
2023/10/23 01:01:19;;;;;;;13.88;7.35;;;;;;;;;;5050577;28;20044;-63
2023/10/23 01:04:13;;;;;;;16.73;7.78;;;;;;;;;;5050687;28;20059;-65
2023/10/23 01:07:00;;;;;;;12.65;7.00;;;;;;;;;;5049533;28;20064;-63
2023/10/23 01:09:34;;;;;;;13.70;6.75;;;;;;;;;;5049617;28;20052;-63
2023/10/23 01:12:27;;;;;;;16.80;7.18;;;;;;;;;;5051312;28;20052;-63
2023/10/23 01:15:28;;;;;;;12.15;6.95;;;;;;;;;;5050587;28;20049;-63
2023/10/23 01:18:15;;;;;;;13.93;7.13;;;;;;;;;;5050210;28;20053;-64
2023/10/23 01:21:09;;;;;;;13.32;7.18;;;;;;;;;;5047666;28;20588;-64
2023/10/23 01:23:58;;;;;;;13.60;7.18;;;;;;;;;;5045632;28;20136;-53
2023/10/23 01:26:51;;;;;;;13.65;6.60;;;;;;;;;;5049099;28;20421;-52
2023/10/23 01:29:45;;;;;;;17.88;6.55;;;;;;;;;;5051848;28;20060;-46
2023/10/23 01:32:32;;;;;;;16.27;7.07;;;;;;;;;;5046075;28;20045;-49
2023/10/23 01:35:26;;;;;;;14.75;6.68;;;;;;;;;;5050488;28;20048;-50
2023/10/23 01:38:13;;;;;;;14.18;6.85;;;;;;;;;;5051401;28;20134;-50
2023/10/23 01:41:07;;;;;;;13.25;6.78;;;;;;;;;;5050938;28;20067;-63
2023/10/23 01:43:54;;;;;;;17.50;6.88;;;;;;;;;;5053217;28;20056;-48
2023/10/23 01:46:48;;;;;;;12.02;6.88;;;;;;;;;;5051857;28;20516;-49
2023/10/23 01:49:35;;;;;;;15.50;7.43;;;;;;;;;;5053147;28;21696;-49
2023/10/23 01:52:29;;;;;;;13.45;6.63;;;;;;;;;;5052969;28;20041;-50
2023/10/23 01:55:16;;;;;;;13.02;6.60;;;;;;;;;;5050975;28;20048;-50
2023/10/23 01:58:10;;;;;;;16.13;7.13;;;;;;;;;;5051682;28;20052;-47
2023/10/23 02:01:04;;;;;;;17.40;6.93;;;;;;;;;;5050407;28;20048;-49
2023/10/23 02:03:58;;;;;;;11.13;6.93;;;;;;;;;;5051700;28;20497;-62
2023/10/23 02:06:52;;;;;;;14.82;6.53;;;;;;;;;;5051960;28;20048;-64
2023/10/23 02:09:46;;;;;;;14.23;6.85;;;;;;;;;;5051658;28;20611;-64
2023/10/23 02:12:40;;;;;;;10.63;6.50;;;;;;;;;;5047296;28;20514;-63
2023/10/23 02:15:41;;;;;;;11.60;6.22;;;;;;;;;;5047772;28;20059;-63
2023/10/23 02:18:28;;;;;;;13.88;6.57;;;;;;;;;;5050092;28;20052;-48
2023/10/23 02:21:23;;;;;;;11.13;6.43;;;;;;;;;;5043784;28;20074;-58
2023/10/23 02:24:09;;;;;;;13.00;6.13;;;;;;;;;;5046595;28;20134;-57
2023/10/23 02:27:03;;;;;;;9.30;6.18;;;;;;;;;;5046099;28;20049;-57
2023/10/23 02:29:51;;;;;;;12.13;6.57;;;;;;;;;;5049233;28;20045;-57
2023/10/23 02:32:45;;;;;;;12.35;6.35;;;;;;;;;;5048231;28;20425;-58
2023/10/23 02:35:36;;;;;;;13.55;6.50;;;;;;;;;;5047558;28;20055;-59
2023/10/23 02:38:29;;;;;;;10.57;6.35;;;;;;;;;;5047305;28;20102;-59
2023/10/23 02:41:23;;;;;;;10.65;5.70;;;;;;;;;;5048067;28;20061;-62
2023/10/23 02:44:11;;;;;;;10.55;6.20;;;;;;;;;;5049198;28;20107;-63
2023/10/23 02:47:04;;;;;;;13.50;6.25;;;;;;;;;;5047600;28;20466;-63
2023/10/23 02:49:58;;;;;;;12.52;5.60;;;;;;;;;;5050059;28;20844;-63
2023/10/23 02:52:26;;;;;;;13.60;5.97;;;;;;;;;;5049107;28;20052;-63
2023/10/23 02:55:20;;;;;;;9.15;5.50;;;;;;;;;;5048247;28;20060;-56
2023/10/23 02:58:07;;;;;;;11.30;5.82;;;;;;;;;;5046931;28;20061;-53
2023/10/23 03:01:01;;;;;;;9.73;5.47;;;;;;;;;;5051019;28;20107;-53
2023/10/23 03:03:48;;;;;;;10.43;5.30;;;;;;;;;;5050210;28;21105;-53
2023/10/23 03:06:42;;;;;;;12.35;5.03;;;;;;;;;;5053845;28;20071;-51
2023/10/23 03:09:29;;;;;;;9.30;5.45;;;;;;;;;;5054146;28;20055;-55
2023/10/23 03:12:36;;;;;;;11.05;5.47;;;;;;;;;;5052342;28;20049;-65
2023/10/23 03:15:30;;;;;;;10.00;5.40;;;;;;;;;;5053360;28;20066;-51
2023/10/23 03:18:24;;;;;;;9.30;5.30;;;;;;;;;;5052923;28;20044;-49
2023/10/23 03:21:12;;;;;;;12.10;5.25;;;;;;;;;;5052426;28;20094;-47
2023/10/23 03:24:05;;;;;;;9.30;5.20;;;;;;;;;;5052591;28;20508;-51
2023/10/23 03:27:00;;;;;;;13.15;5.35;;;;;;;;;;5050485;28;20059;-54
2023/10/23 03:29:53;;;;;;;11.65;5.38;;;;;;;;;;5053027;28;20044;-48
2023/10/23 03:32:40;;;;;;;8.18;4.82;;;;;;;;;;5048954;28;20057;-53
2023/10/23 03:35:35;;;;;;;10.73;5.10;;;;;;;;;;5051133;28;20635;-57
2023/10/23 03:38:21;;;;;;;9.45;4.75;;;;;;;;;;5046666;28;20498;-58
2023/10/23 03:41:15;;;;;;;8.93;3.92;;;;;;;;;;5048479;28;20053;-58
2023/10/23 03:44:03;;;;;;;6.10;3.88;;;;;;;;;;5050627;28;20101;-56
2023/10/23 03:46:56;;;;;;;7.75;4.20;;;;;;;;;;5052519;28;20049;-58
2023/10/23 03:49:44;;;;;;;7.70;3.92;;;;;;;;;;5048475;28;20048;-65
2023/10/23 03:52:37;;;;;;;6.25;3.95;;;;;;;;;;5050615;28;20063;-65
2023/10/23 03:55:24;;;;;;;5.25;3.72;;;;;;;;;;5048897;28;20040;-67
2023/10/23 03:58:18;;;;;;;9.35;4.03;;;;;;;;;;5043689;28;20133;-67
2023/10/23 04:01:05;;;;;;;8.57;4.03;;;;;;;;;;5049636;28;20105;-67
2023/10/23 04:03:59;;;;;;;6.93;3.67;;;;;;;;;;5053229;28;20048;-67
2023/10/23 04:06:27;;;;;;;10.75;3.90;;;;;;;;;;5045641;28;20056;-68
2023/10/23 04:08:54;;;;;;;6.68;3.33;;;;;;;;;;5046210;28;20052;-60
2023/10/23 04:11:48;;;;;;;8.00;3.45;;;;;;;;;;5044720;28;20092;-63
2023/10/23 04:14:52;;;;;;;4.93;3.03;;;;;;;;;;5043718;28;20060;-62
2023/10/23 04:17:39;;;;;;;6.63;3.40;;;;;;;;;;5048062;28;20052;-61
2023/10/23 04:20:29;;;;;;;;;;;;;;;;;;5050304;28;20141;-61
2023/10/23 04:23:15;;;;;;;4.88;3.00;;;;;;;;;;5048018;28;20059;-62
2023/10/23 04:26:09;;;;;;;5.05;2.85;;;;;;;;;;5046078;28;20048;-66
2023/10/23 04:29:04;;;;;;;4.63;2.80;;;;;;;;;;5051707;28;20057;-58
2023/10/23 04:31:58;;;;;;;4.53;2.83;;;;;;;;;;5055108;28;20048;-59
2023/10/23 04:34:45;;;;;;;5.00;2.60;;;;;;;;;;5053951;28;20049;-59
2023/10/23 04:37:39;;;;;;;6.38;2.67;;;;;;;;;;5055854;28;20158;-58
2023/10/23 04:40:26;;;;;;;3.00;2.35;;;;;;;;;;5055760;28;20156;-58
2023/10/23 04:43:21;;;;;;;2.55;2.08;;;;;;;;;;5045206;28;20122;-60
2023/10/23 04:45:56;;;;;;;4.80;2.40;;;;;;;;;;5052607;28;20076;-52
2023/10/23 04:48:43;;;;;;;7.10;2.38;;;;;;;;;;5048661;28;20060;-54
2023/10/23 04:51:37;;;;;;;4.68;2.40;;;;;;;;;;5048271;28;20056;-53
2023/10/23 04:54:24;;;;;;;2.53;2.13;;;;;;;;;;5046161;28;20281;-52
2023/10/23 04:57:18;;;;;;;2.92;2.05;;;;;;;;;;5038688;28;20075;-54
2023/10/23 05:00:06;;;;;;;2.75;1.90;;;;;;;;;;5039567;28;20549;-51
2023/10/23 05:03:01;;;;;;;2.78;1.92;;;;;;;;;;5043120;28;20505;-49
2023/10/23 05:05:48;;;;;;;4.43;1.95;;;;;;;;;;5053735;28;20045;-63
2023/10/23 05:08:43;;;;;;;4.00;1.98;;;;;;;;;;5054248;28;20118;-64
2023/10/23 05:11:31;;;;;;;3.45;1.73;;;;;;;;;;5052789;28;20506;-63
2023/10/23 05:14:31;;;;;;;4.93;2.10;;;;;;;;;;5053944;28;20063;-63
2023/10/23 05:17:18;;;;;;;3.17;1.80;;;;;;;;;;5052069;28;20076;-62
2023/10/23 05:20:12;;;;;;;2.30;1.63;;;;;;;;;;5056527;28;20441;-62
2023/10/23 05:23:06;;;;;;;2.80;1.67;;;;;;;;;;5054708;28;20125;-59
2023/10/23 05:26:01;;;;;;;3.30;1.77;;;;;;;;;;5056924;28;20134;-48
2023/10/23 05:28:54;;;;;;;2.45;1.88;;;;;;;;;;5055879;28;20061;-48
2023/10/23 05:31:48;;;;;;;3.58;1.65;;;;;;;;;;5051370;28;20061;-52
2023/10/23 05:34:44;;;;;;;2.05;1.55;;;;;;;;;;5055863;28;20892;-47
2023/10/23 05:37:35;;;;;;;4.00;1.70;;;;;;;;;;5054295;28;20079;-51
2023/10/23 05:40:28;;;;;;;1.23;1.13;;;;;;;;;;5056053;28;20045;-58
2023/10/23 05:43:17;;;;;;;1.45;1.30;;;;;;;;;;5056669;28;20062;-62
2023/10/23 05:46:09;;;;;;;1.38;1.13;;;;;;;;;;5054394;28;20071;-63
2023/10/23 05:48:56;;;;;;;2.60;1.20;;;;;;;;;;5049420;28;20041;-63
2023/10/23 05:51:50;;;;;;;1.20;1.10;;;;;;;;;;5052713;28;20083;-63
2023/10/23 05:54:37;;;;;;;2.42;1.10;;;;;;;;;;5053754;28;20501;-62
2023/10/23 05:57:31;;;;;;;2.67;0.95;;;;;;;;;;5057376;28;20141;-63
2023/10/23 06:00:19;;;;;;;2.35;0.80;;;;;;;;;;5054757;28;20051;-65
2023/10/23 06:03:13;;;;;;;3.03;0.90;;;;;;;;;;5051807;28;20136;-56
2023/10/23 06:06:01;;;;;;;0.70;0.70;;;;;;;;;;5054105;28;20068;-54
2023/10/23 06:08:55;;;;;;;1.02;0.90;;;;;;;;;;5053507;28;20059;-57
2023/10/23 06:11:49;;;;;;;1.00;0.90;;;;;;;;;;5052556;28;20471;-57
2023/10/23 06:14:37;;;;;;;1.13;1.00;;;;;;;;;;5054820;28;20064;-56
2023/10/23 06:17:30;;;;;;;1.10;1.00;;;;;;;;;;5053555;28;20056;-65
2023/10/23 06:20:17;;;;;;;1.05;0.95;;;;;;;;;;5051989;28;20102;-51
2023/10/23 06:23:11;;;;;;;1.52;0.95;;;;;;;;;;5054291;28;20563;-54
2023/10/23 06:25:59;;;;;;;2.25;1.30;;;;;;;;;;5053733;28;20102;-52
2023/10/23 06:28:52;;;;;;;5.03;1.33;;;;;;;;;;5053460;28;20463;-56
2023/10/23 06:31:39;;;;;;;2.72;0.80;;;;;;;;;;5052070;28;20044;-52
2023/10/23 06:34:33;;;;;;;1.80;1.20;;;;;;;;;;5058875;28;20059;-65
2023/10/23 06:37:20;;;;;;;3.00;1.70;;;;;;;;;;5058324;28;20133;-54
2023/10/23 06:40:14;;;;;;;1.25;1.10;;;;;;;;;;5060141;28;20059;-47
2023/10/23 06:43:02;;;;;;;2.08;1.33;;;;;;;;;;5058382;28;20480;-48
2023/10/23 06:45:55;;;;;;;1.08;0.90;;;;;;;;;;5057995;28;20142;-50
2023/10/23 06:48:46;;;;;;;1.40;0.90;;;;;;;;;;5056002;28;20057;-47
2023/10/23 06:51:40;;;;;;;1.30;1.17;;;;;;;;;;5058665;28;20056;-51
2023/10/23 06:54:29;;;;;;;1.85;1.15;;;;;;;;;;5056039;28;20056;-66
2023/10/23 06:57:23;;;;;;;2.42;1.35;;;;;;;;;;5056669;28;20181;-49
2023/10/23 07:00:11;;;;;;;2.70;1.90;;;;;;;;;;5059125;28;20053;-46
2023/10/23 07:03:04;;;;;;;1.80;1.45;;;;;;;;;;5052698;28;20052;-48
2023/10/23 07:05:51;;;;;;;3.92;1.35;;;;;;;;;;5058650;28;20048;-47
2023/10/23 07:08:45;;;;;;;1.58;1.40;;;;;;;;;;5054388;28;20498;-47
2023/10/23 07:11:33;;;;;;;1.58;1.45;;;;;;;;;;5057861;28;20032;-63
2023/10/23 07:14:34;;;;;;;2.22;1.65;;;;;;;;;;5053709;28;20128;-47
2023/10/23 07:17:28;;;;;;;2.10;1.73;;;;;;;;;;5059463;28;20057;-49
2023/10/23 07:20:22;;;;;;;4.28;1.52;;;;;;;;;;5059595;28;20049;-50
2023/10/23 07:23:09;;;;;;;2.28;1.70;;;;;;;;;;5057177;28;20051;-47
2023/10/23 07:26:04;;;;;;;1.60;1.40;;;;;;;;;;5056579;28;20110;-47
2023/10/23 07:28:51;;;;;;;0.95;0.95;;;;;;;;;;5057562;28;20098;-47
2023/10/23 07:31:45;;;;;;;1.92;1.35;;;;;;;;;;5057482;28;20972;-57
2023/10/23 07:34:32;;;;;;;1.90;1.10;;;;;;;;;;5057480;28;20253;-51
2023/10/23 07:37:27;;;;;;;1.75;1.23;;;;;;;;;;5055205;28;20163;-52
2023/10/23 07:40:13;;;;;;;1.38;1.10;;;;;;;;;;5058864;28;20040;-55
2023/10/23 07:43:07;;;;;;;2.22;1.00;;;;;;;;;;5056434;28;20049;-55
2023/10/23 07:45:54;;;;;;;1.48;0.98;;;;;;;;;;5056267;28;20501;-51
2023/10/23 07:48:48;;;;;;;1.15;1.00;;;;;;;;;;5053683;28;20743;-53
2023/10/23 07:51:35;;;;;;;1.30;1.10;;;;;;;;;;5057765;28;20465;-59
2023/10/23 07:54:31;;;;;;;1.05;0.95;;;;;;;;;;5056202;28;20044;-59
2023/10/23 07:57:16;;;;;;;3.60;1.17;;;;;;;;;;5056403;28;20438;-59
2023/10/23 08:00:14;;;;;;;0.77;0.75;;;;;;;;;;5053801;28;20102;-59
2023/10/23 08:02:59;;;;;;;0.88;0.88;;;;;;;;;;5056176;28;20097;-58
2023/10/23 08:05:52;;;;;;;1.80;0.98;;;;;;;;;;5050257;28;20041;-59
2023/10/23 08:08:40;;;;;;;0.82;0.82;;;;;;;;;;5049841;28;20065;-51
2023/10/23 08:11:34;;;;;;;1.63;0.90;;;;;;;;;;5052743;28;20710;-57
2023/10/23 08:14:28;;;;;;;1.00;0.90;;;;;;;;;;5051846;28;20048;-59
2023/10/23 08:17:29;;;;;;;0.82;0.80;;;;;;;;;;5052325;28;20041;-57
2023/10/23 08:20:17;;;;;;;0.90;0.60;;;;;;;;;;5049700;28;20072;-58
2023/10/23 08:23:10;;;;;;;0.90;0.80;;;;;;;;;;5052935;28;20048;-57
2023/10/23 08:25:57;;;;;;;0.75;0.70;;;;;;;;;;5053750;28;20053;-53
2023/10/23 08:28:51;;;;;;;0.60;0.50;;;;;;;;;;5056777;28;20077;-58
2023/10/23 08:31:41;;;;;;;0.50;0.50;;;;;;;;;;5052434;28;20080;-59
2023/10/23 08:34:34;;;;;;;4.70;0.70;;;;;;;;;;5051265;28;20071;-58
2023/10/23 08:37:21;;;;;;;0.60;0.60;;;;;;;;;;5051283;28;20067;-58
2023/10/23 08:40:15;;;;;;;3.95;0.90;;;;;;;;;;5054485;28;20423;-57
2023/10/23 08:43:02;;;;;;;1.20;1.00;;;;;;;;;;5056485;28;20049;-48
2023/10/23 08:45:58;;;;;;;1.13;0.90;;;;;;;;;;5055453;28;20052;-59
2023/10/23 08:48:46;;;;;;;1.30;1.13;;;;;;;;;;5050474;28;20060;-63
2023/10/23 08:51:47;;;;;;;2.40;1.25;;;;;;;;;;5053162;28;20052;-63
2023/10/23 08:54:35;;;;;;;2.72;1.30;;;;;;;;;;5050919;28;20068;-63
2023/10/23 08:57:30;;;;;;;3.88;1.10;;;;;;;;;;5056453;28;20037;-63
2023/10/23 09:00:17;;;;;;;2.30;1.23;;;;;;;;;;5053826;28;20423;-63
2023/10/23 09:03:11;;;;;;;1.70;1.02;;;;;;;;;;5056143;28;20047;-60
2023/10/23 09:06:19;;;;;;;1.20;0.95;;;;;;;;;;5054690;28;20050;-65
2023/10/23 09:09:13;;;;;;;1.42;1.20;;;;;;;;;;5051133;28;20098;-66
2023/10/23 09:12:03;;;;;;;1.08;0.90;;;;;;;;;;5054989;28;20464;-65
2023/10/23 09:15:01;;;;;;;1.98;0.73;;;;;;;;;;5052570;28;20060;-66
2023/10/23 09:17:49;;;;;;;1.92;1.17;;;;;;;;;;5054029;28;20044;-65
2023/10/23 09:20:43;;;;;;;0.75;0.75;;;;;;;;;;5056094;28;20114;-59
2023/10/23 09:23:30;;;;;;;1.65;1.20;;;;;;;;;;5053966;28;20063;-64
2023/10/23 09:26:24;;;;;;;4.25;1.30;;;;;;;;;;5053078;28;20068;-64
2023/10/23 09:29:11;;;;;;;3.38;1.63;;;;;;;;;;5056247;28;20468;-64
2023/10/23 09:32:06;;;;;;;1.30;1.20;;;;;;;;;;5055842;28;20072;-63
2023/10/23 09:34:53;;;;;;;3.33;1.40;;;;;;;;;;5055768;28;20049;-64
2023/10/23 09:37:47;;;;;;;3.00;1.38;;;;;;;;;;5054097;28;20060;-65
2023/10/23 09:40:34;;;;;;;4.47;2.13;;;;;;;;;;5052352;28;20044;-58
2023/10/23 09:43:28;;;;;;;3.22;1.48;;;;;;;;;;5052346;28;20049;-54
2023/10/23 09:46:15;;;;;;;5.70;1.45;;;;;;;;;;5052341;28;20048;-50
2023/10/23 09:49:10;;;;;;;1.10;0.98;;;;;;;;;;5053394;28;20135;-48
2023/10/23 09:51:59;;;;;;;1.13;1.02;;;;;;;;;;5051670;28;20079;-47
2023/10/23 09:54:59;;;;;;;1.20;1.00;;;;;;;;;;5047465;28;20098;-50
2023/10/23 09:57:50;;;;;;;1.17;0.77;;;;;;;;;;5053626;28;20478;-59
2023/10/23 10:00:48;;;;;;;1.75;1.10;;;;;;;;;;5047990;28;20048;-65
2023/10/23 10:03:33;;;;;;;;;;;;;;;;;;5049586;28;20049;-65
2023/10/23 10:06:26;;;;;;;0.65;0.65;;;;;;;;;;5046212;28;19951;-66
2023/10/23 10:09:14;;;;;;;1.50;0.83;;;;;;;;;;5051073;28;20551;-66
2023/10/23 10:12:08;;;;;;;0.65;0.52;;;;;;;;;;5054190;28;20499;-65
2023/10/23 10:14:56;;;;;;;0.80;0.50;;;;;;;;;;5052362;28;20117;-63
2023/10/23 10:17:50;;;;;;;0.73;0.55;;;;;;;;;;5053111;28;21188;-64
2023/10/23 10:20:38;;;;;;;0.88;0.57;;;;;;;;;;5053643;28;20051;-59
2023/10/23 10:23:35;;;;;;;0.30;0.30;;;;;;;;;;5054808;28;20739;-59
2023/10/23 10:26:22;;;;;;;3.45;0.52;;;;;;;;;;5052376;28;20047;-59
2023/10/23 10:29:14;;;;;;;0.75;0.70;;;;;;;;;;5052365;28;20257;-59
2023/10/23 10:32:10;;;;;;;2.88;0.57;;;;;;;;;;5054016;28;20081;-59
2023/10/23 10:34:59;;;;;;;0.57;0.57;;;;;;;;;;5050420;28;20128;-57
2023/10/23 10:38:14;;;;;;;3.33;0.50;;;;;;;;;;5054573;28;20048;-53
2023/10/23 10:41:05;;;;;;;0.57;0.50;;;;;;;;;;5055785;28;20056;-52
2023/10/23 10:43:59;;;;;;;0.38;0.38;;;;;;;;;;5051520;28;20044;-48
2023/10/23 10:46:50;;;;;;;0.70;0.45;;;;;;;;;;5052572;28;20460;-50
2023/10/23 10:49:47;;;;;;;0.30;0.30;;;;;;;;;;5051735;28;20064;-52
2023/10/23 10:52:35;;;;;;;0.30;0.30;;;;;;;;;;5053309;28;20064;-58
2023/10/23 10:55:28;;;;;;;0.70;0.30;;;;;;;;;;5052222;28;20215;-63
2023/10/23 10:58:16;;;;;;;0.70;0.40;;;;;;;;;;5055579;28;20139;-63
2023/10/23 11:01:09;;;;;;;0.30;0.30;;;;;;;;;;5051440;28;20048;-63
2023/10/23 11:03:57;;;;;;;0.35;0.30;;;;;;;;;;5047948;28;20059;-63
2023/10/23 11:06:51;;;;;;;0.28;0.20;;;;;;;;;;5051410;28;20053;-63
2023/10/23 11:09:38;;;;;;;0.28;0.28;;;;;;;;;;5052858;28;20044;-64
2023/10/23 11:12:32;;;;;;;1.83;0.47;;;;;;;;;;5051621;28;20048;-65
2023/10/23 11:15:26;;;;;;;0.50;0.50;;;;;;;;;;5049467;28;20045;-65
2023/10/23 11:18:19;;;;;;;2.30;0.50;;;;;;;;;;5051819;28;20040;-66
2023/10/23 11:21:16;;;;;;;0.32;0.30;;;;;;;;;;5055431;28;20519;-65
2023/10/23 11:24:02;;;;;;;1.38;0.85;;;;;;;;;;5057999;28;20049;-65
2023/10/23 11:26:55;;;;;;;0.73;0.50;;;;;;;;;;5057162;28;20106;-66
2023/10/23 11:29:43;;;;;;;0.77;0.70;;;;;;;;;;5053574;28;20079;-63
2023/10/23 11:32:39;;;;;;;2.17;0.98;;;;;;;;;;5052294;28;20513;-63
2023/10/23 11:35:31;;;;;;;0.60;0.60;;;;;;;;;;5053275;28;20048;-63
2023/10/23 11:38:27;;;;;;;1.52;0.60;;;;;;;;;;5058455;28;20094;-63
2023/10/23 11:41:14;;;;;;;0.30;0.30;;;;;;;;;;5055801;28;20284;-64
2023/10/23 11:44:08;;;;;;;0.77;0.50;;;;;;;;;;5055365;28;20087;-62
2023/10/23 11:46:57;;;;;;;3.30;0.50;;;;;;;;;;5056987;28;20051;-48
2023/10/23 11:49:51;;;;;;;0.68;0.63;;;;;;;;;;5055168;28;20045;-47
2023/10/23 11:52:49;;;;;;;0.35;0.35;;;;;;;;;;5055693;28;20051;-63
2023/10/23 11:55:44;;;;;;;0.80;0.73;;;;;;;;;;5054394;28;20079;-64
2023/10/23 11:58:32;;;;;;;3.38;0.85;;;;;;;;;;5056386;28;20167;-63
2023/10/23 12:01:25;;;;;;;4.05;1.67;;;;;;;;;;5055976;28;20048;-64
2023/10/23 12:04:13;;;;;;;2.35;1.67;;;;;;;;;;5054091;28;20046;-64
2023/10/23 12:07:06;;;;;;;2.83;1.90;;;;;;;;;;5056377;28;20072;-64
2023/10/23 12:09:53;;;;;;;3.25;1.92;;;;;;;;;;5053851;28;20048;-57
2023/10/23 12:12:48;;;;;;;2.30;1.70;;;;;;;;;;5054270;28;20161;-58
2023/10/23 12:15:42;;;;;;;4.00;2.03;;;;;;;;;;5036016;28;20053;-58
2023/10/23 12:18:36;;;;;;;4.55;2.33;;;;;;;;;;5036825;28;20053;-58
2023/10/23 12:21:24;;;;;;;2.83;1.80;;;;;;;;;;5037887;28;20392;-58
2023/10/23 12:24:18;;;;;;;3.03;2.15;;;;;;;;;;5035076;28;20052;-60
2023/10/23 12:27:05;;;;;;;1.40;1.15;;;;;;;;;;5036948;28;20048;-65
2023/10/23 12:29:59;;;;;;;2.30;1.52;;;;;;;;;;5032112;28;20803;-65
2023/10/23 12:32:53;;;;;;;7.80;1.50;;;;;;;;;;5032160;28;20045;-65
2023/10/23 12:35:54;;;;;;;2.33;1.38;;;;;;;;;;5032657;28;20407;-66
2023/10/23 14:52:17;;;;;;;2.97;1.88;;;;;;;;;;4997081;28;20093;-62
2023/10/23 14:54:54;;;;;;;5.20;2.17;;;;;;;;;;5016932;28;20058;-65
2023/10/23 14:57:41;;;;;;;3.15;2.05;;;;;;;;;;5017084;28;20483;-65
2023/10/23 15:00:35;;;;;;;2.60;1.80;;;;;;;;;;5021878;28;20435;-65
2023/10/23 15:03:23;;;;;;;2.28;1.85;;;;;;;;;;5005317;28;20093;-66
2023/10/23 15:06:16;;;;;;;5.93;1.95;;;;;;;;;;5013730;28;20144;-65
2023/10/23 15:09:10;;;;;;;2.78;2.03;;;;;;;;;;4995183;28;20108;-65
2023/10/23 15:12:05;;;;;;;5.22;2.40;;;;;;;;;;5017843;28;20049;-59
2023/10/23 15:14:52;;;;;;;7.43;2.28;;;;;;;;;;5019497;28;20049;-59
2023/10/23 15:17:46;;;;;;;3.15;1.60;;;;;;;;;;5021395;28;20072;-58
2023/10/23 15:20:34;;;;;;;3.15;2.08;;;;;;;;;;5013940;28;20080;-59
2023/10/23 15:23:27;;;;;;;3.53;2.10;;;;;;;;;;5021059;28;20557;-57
2023/10/23 15:26:14;;;;;;;6.53;2.10;;;;;;;;;;5014750;28;20262;-58
2023/10/23 15:29:08;;;;;;;4.72;2.17;;;;;;;;;;5013628;28;20053;-59
2023/10/23 15:31:55;;;;;;;2.85;2.40;;;;;;;;;;5015898;28;20050;-62
2023/10/23 15:34:49;;;;;;;3.05;2.20;;;;;;;;;;5010395;28;20053;-60
2023/10/23 15:37:37;;;;;;;7.97;2.65;;;;;;;;;;5016634;28;20119;-61
2023/10/23 15:40:30;;;;;;;4.95;2.58;;;;;;;;;;5010151;28;20056;-60
2023/10/23 15:43:21;;;;;;;5.25;2.45;;;;;;;;;;5019192;28;20057;-60
2023/10/23 15:46:16;;;;;;;2.85;2.20;;;;;;;;;;5012137;28;20073;-54
2023/10/23 15:49:03;;;;;;;2.47;2.00;;;;;;;;;;5001049;28;20160;-63
2023/10/23 15:52:11;;;;;;;3.85;2.50;;;;;;;;;;5004484;28;20057;-63
2023/10/23 15:55:05;;;;;;;3.78;2.20;;;;;;;;;;5008018;28;20517;-63
2023/10/23 15:57:59;;;;;;;3.47;2.53;;;;;;;;;;5018826;28;20053;-63
2023/10/23 16:00:47;;;;;;;2.80;1.90;;;;;;;;;;5017270;28;20049;-63
2023/10/23 16:03:21;;;;;;;2.70;2.05;;;;;;;;;;5012371;28;20060;-64
2023/10/23 16:06:15;;;;;;;2.78;2.33;;;;;;;;;;5008372;28;20483;-63
2023/10/23 16:09:09;;;;;;;5.57;2.72;;;;;;;;;;5015202;28;20076;-63
2023/10/23 16:11:57;;;;;;;4.50;2.38;;;;;;;;;;5012503;28;20057;-63
2023/10/23 16:14:50;;;;;;;3.15;2.40;;;;;;;;;;5013801;28;20112;-63
2023/10/23 16:17:44;;;;;;;4.53;2.75;;;;;;;;;;5012043;28;20054;-63
2023/10/23 16:20:32;;;;;;;6.18;2.47;;;;;;;;;;5011460;28;20068;-63
2023/10/23 16:23:29;;;;;;;3.15;2.45;;;;;;;;;;5012912;28;20049;-48
2023/10/23 16:26:14;;;;;;;5.70;2.58;;;;;;;;;;5013151;28;20053;-47
2023/10/23 16:29:07;;;;;;;3.70;2.58;;;;;;;;;;5005970;28;20052;-47
2023/10/23 16:31:55;;;;;;;3.95;2.70;;;;;;;;;;5005183;28;20115;-47
2023/10/23 16:34:29;;;;;;;4.28;2.67;;;;;;;;;;5010449;28;20057;-47
2023/10/23 16:37:16;;;;;;;4.00;2.60;;;;;;;;;;5015749;28;20131;-48
2023/10/23 16:40:11;;;;;;;5.00;2.47;;;;;;;;;;5009125;28;20284;-50
2023/10/23 16:42:59;;;;;;;6.90;2.58;;;;;;;;;;5011145;28;20057;-62
2023/10/23 16:45:52;;;;;;;3.47;2.67;;;;;;;;;;5009044;28;20115;-53
2023/10/23 16:48:46;;;;;;;3.13;2.40;;;;;;;;;;5007333;28;20050;-49
2023/10/23 16:51:14;;;;;;;4.13;2.67;;;;;;;;;;5013849;28;20521;-47
2023/10/23 16:53:41;;;;;;;3.60;2.75;;;;;;;;;;5005416;28;21091;-49
2023/10/23 16:56:15;;;;;;;5.60;2.63;;;;;;;;;;5010181;28;20072;-50
2023/10/23 16:59:04;;;;;;;3.60;2.20;;;;;;;;;;5008853;28;20060;-49
2023/10/23 17:01:56;;;;;;;5.63;2.55;;;;;;;;;;5005228;28;21090;-55
2023/10/23 17:04:45;;;;;;;2.70;2.13;;;;;;;;;;5006771;28;20605;-64
2023/10/23 17:07:39;;;;;;;2.65;1.88;;;;;;;;;;5008964;28;20111;-64
2023/10/23 17:10:26;;;;;;;2.88;2.03;;;;;;;;;;5008750;28;20143;-63
2023/10/23 17:13:21;;;;;;;5.07;1.90;;;;;;;;;;5011225;28;20553;-63
2023/10/23 17:16:11;;;;;;;3.35;2.30;;;;;;;;;;5009203;28;20057;-63
2023/10/23 17:19:06;;;;;;;4.18;2.67;;;;;;;;;;5010573;28;20061;-63
2023/10/23 17:21:59;;;;;;;4.68;2.92;;;;;;;;;;5009485;28;20755;-63
2023/10/23 17:24:47;;;;;;;3.15;2.38;;;;;;;;;;5010402;28;20060;-63
2023/10/23 17:27:41;;;;;;;2.63;2.30;;;;;;;;;;5007256;28;20053;-63
2023/10/23 17:30:29;;;;;;;3.40;2.60;;;;;;;;;;5010116;28;20179;-63
2023/10/23 17:33:23;;;;;;;3.80;2.75;;;;;;;;;;5008786;28;20065;-63
2023/10/23 17:36:11;;;;;;;4.67;3.13;;;;;;;;;;5007472;28;20053;-52
2023/10/23 17:39:05;;;;;;;7.32;3.90;;;;;;;;;;5006932;28;20054;-65
2023/10/23 17:41:58;;;;;;;7.18;4.82;;;;;;;;;;5005858;28;20053;-49
2023/10/23 17:44:52;;;;;;;21.15;5.47;;;;;;;;;;5007970;28;20085;-49
2023/10/23 17:47:47;;;;;;;51.83;7.28;;;;;;;;;;5008723;28;20334;-48
2023/10/23 17:50:34;;;;;;;41.10;6.68;;;;;;;;;;5003404;28;20696;-49
2023/10/23 17:53:35;;;;;;;37.58;7.55;;;;;;;;;;5008616;28;20108;-51
2023/10/23 17:56:32;;;;;;;74.50;7.95;;;;;;;;;;5009395;28;20050;-63
2023/10/23 17:59:25;;;;;;;45.38;8.25;;;;;;;;;;5010521;28;20123;-63
2023/10/23 18:02:12;;;;;;;52.08;7.25;;;;;;;;;;5008975;28;20139;-63
2023/10/23 18:05:07;;;;;;;70.70;8.75;;;;;;;;;;5006022;28;20096;-63
2023/10/23 18:07:55;;;;;;;73.80;8.25;;;;;;;;;;5007622;28;20060;-65
2023/10/23 18:10:49;;;;;;;138.25;12.82;;;;;;;;;;5010331;28;20107;-63
2023/10/23 18:13:36;;;;;;;67.90;9.70;;;;;;;;;;5007555;28;20062;-49
2023/10/23 18:16:30;;;;;;;66.88;9.32;;;;;;;;;;5008321;28;20054;-63
2023/10/23 18:19:18;;;;;;;84.55;10.25;;;;;;;;;;5010259;28;20059;-63
2023/10/23 18:22:12;;;;;;;66.97;10.32;;;;;;;;;;5007428;28;20538;-63
2023/10/23 18:24:59;;;;;;;50.88;7.78;;;;;;;;;;5008638;28;20058;-63
2023/10/23 18:27:53;;;;;;;58.15;8.43;;;;;;;;;;5009129;28;20064;-62
2023/10/23 18:30:40;;;;;;;36.13;7.70;;;;;;;;;;5011288;28;20049;-62
2023/10/23 18:33:34;;;;;;;30.80;6.85;;;;;;;;;;5010045;28;20135;-62
2023/10/23 18:36:21;;;;;;;44.85;8.13;;;;;;;;;;5009164;28;20135;-55
2023/10/23 18:39:15;;;;;;;31.75;7.55;;;;;;;;;;5009459;28;20898;-53
2023/10/23 18:42:04;;;;;;;24.55;6.40;;;;;;;;;;5011798;28;20053;-54
2023/10/23 18:44:59;;;;;;;22.60;6.47;;;;;;;;;;5017626;28;20115;-49
2023/10/23 18:47:44;;;;;;;55.60;7.63;;;;;;;;;;5014769;28;20862;-55
2023/10/23 18:50:37;;;;;;;27.88;7.55;;;;;;;;;;5010157;28;20108;-64
2023/10/23 18:53:31;;;;;;;31.45;8.00;;;;;;;;;;5010852;28;20089;-65
2023/10/23 18:56:33;;;;;;;29.88;8.52;;;;;;;;;;5011023;28;20076;-66
2023/10/23 18:59:19;;;;;;;18.30;6.97;;;;;;;;;;5014697;28;20183;-65
2023/10/23 19:02:13;;;;;;;49.60;8.77;;;;;;;;;;5007777;28;20175;-66
2023/10/23 19:05:01;;;;;;;26.70;7.97;;;;;;;;;;5011703;28;20168;-66
2023/10/23 19:07:54;;;;;;;28.35;7.40;;;;;;;;;;5013919;28;20046;-66
2023/10/23 19:10:48;;;;;;;24.20;8.45;;;;;;;;;;5012411;28;20058;-59
2023/10/23 19:13:36;;;;;;;37.05;8.50;;;;;;;;;;5010128;28;20165;-61
2023/10/23 19:16:29;;;;;;;36.22;8.90;;;;;;;;;;5008247;28;20058;-61